createdAt,value
2023-03-30T00:01:19.981Z,81.24
2023-03-30T00:03:48.315Z,80.65
2023-03-30T00:06:23.352Z,80.64
2023-03-30T00:08:53.743Z,80.57
2023-03-30T00:11:23.512Z,79.69
2023-03-30T00:13:51.376Z,79.37
2023-03-30T00:16:19.284Z,80.20
2023-03-30T00:18:47.492Z,80.54
2023-03-30T00:21:18.484Z,79.92
2023-03-30T00:23:48.997Z,79.59
2023-03-30T00:26:17.620Z,79.49
2023-03-30T00:28:45.088Z,78.33
2023-03-30T00:31:13.129Z,77.54
2023-03-30T00:33:45.711Z,78.08
2023-03-30T00:36:14.940Z,78.47
2023-03-30T00:38:42.178Z,78.76
2023-03-30T00:41:09.960Z,79.07
2023-03-30T00:44:00.166Z,79.55
2023-03-30T00:46:28.116Z,79.85
2023-03-30T00:48:58.942Z,78.99
2023-03-30T00:51:28.312Z,79.61
2023-03-30T00:54:01.794Z,79.20
2023-03-30T00:56:30.894Z,79.40
2023-03-30T00:58:58.692Z,79.08
2023-03-30T01:01:29.230Z,79.85
2023-03-30T01:04:02.445Z,80.48
2023-03-30T01:06:32.296Z,79.88
2023-03-30T01:08:59.423Z,80.01
2023-03-30T01:11:29.481Z,80.61
2023-03-30T01:14:00.444Z,81.16
2023-03-30T01:16:44.350Z,81.87
2023-03-30T01:19:44.000Z,81.78
2023-03-30T01:22:14.973Z,82.20
2023-03-30T01:25:15.388Z,80.91
2023-03-30T01:28:27.363Z,80.05
2023-03-30T01:31:32.042Z,79.29
2023-03-30T01:34:11.757Z,79.65
2023-03-30T01:37:25.327Z,79.77
2023-03-30T01:40:02.300Z,79.21
2023-03-30T01:42:41.435Z,79.93
2023-03-30T01:45:31.920Z,79.14
2023-03-30T01:48:11.058Z,78.56
2023-03-30T01:50:45.275Z,79.31
2023-03-30T01:53:23.605Z,78.63
2023-03-30T01:56:01.367Z,78.33
2023-03-30T01:58:40.113Z,77.63
2023-03-30T02:01:08.841Z,78.63
2023-03-30T02:03:40.307Z,78.62
2023-03-30T02:06:30.825Z,77.78
2023-03-30T02:09:00.469Z,77.53
2023-03-30T02:11:31.431Z,76.83
2023-03-30T02:14:00.359Z,76.80
2023-03-30T02:16:47.108Z,76.87
2023-03-30T02:19:15.754Z,77.27
2023-03-30T02:21:44.083Z,77.76
2023-03-30T02:24:18.944Z,77.34
2023-03-30T02:26:50.661Z,77.03
2023-03-30T02:29:19.382Z,77.73
2023-03-30T02:31:50.041Z,76.47
2023-03-30T02:34:28.754Z,76.77
2023-03-30T02:37:10.152Z,76.43
2023-03-30T02:40:14.028Z,77.18
2023-03-30T02:43:16.698Z,77.33
2023-03-30T02:45:52.964Z,77.37
2023-03-30T02:48:35.742Z,77.08
2023-03-30T02:51:33.500Z,75.72
2023-03-30T02:54:30.181Z,75.86
2023-03-30T02:57:41.363Z,75.37
2023-03-30T03:00:43.516Z,75.88
2023-03-30T03:03:24.095Z,76.36
2023-03-30T03:05:54.400Z,76.15
2023-03-30T03:08:30.450Z,74.09
2023-03-30T03:10:57.836Z,73.88
2023-03-30T03:13:28.075Z,73.17
2023-03-30T03:15:57.084Z,73.45
2023-03-30T03:18:26.795Z,74.14
2023-03-30T03:20:53.958Z,74.81
2023-03-30T03:23:23.847Z,75.49
2023-03-30T03:25:54.205Z,74.18
2023-03-30T03:28:22.529Z,74.87
2023-03-30T03:30:58.510Z,75.42
2023-03-30T03:33:27.541Z,75.45
2023-03-30T03:36:17.516Z,74.59
2023-03-30T03:38:49.094Z,74.42
2023-03-30T03:41:16.973Z,72.94
2023-03-30T03:43:44.749Z,72.33
2023-03-30T03:46:12.890Z,73.21
2023-03-30T03:48:40.868Z,73.55
2023-03-30T03:51:09.544Z,72.92
2023-03-30T03:53:36.977Z,72.93
2023-03-30T03:56:08.274Z,72.38
2023-03-30T03:58:36.326Z,71.65
2023-03-30T04:01:03.920Z,72.98
2023-03-30T04:03:31.800Z,72.69
2023-03-30T04:06:00.781Z,72.41
2023-03-30T04:08:29.012Z,73.57
2023-03-30T04:11:11.927Z,73.67
2023-03-30T04:14:05.025Z,73.31
2023-03-30T04:16:44.041Z,73.31
2023-03-30T04:19:27.763Z,73.61
2023-03-30T04:22:13.917Z,73.69
2023-03-30T04:25:15.176Z,72.44
2023-03-30T04:28:05.428Z,72.33
2023-03-30T04:31:02.212Z,72.18
2023-03-30T04:36:35.928Z,68.77
2023-03-30T04:39:22.258Z,69.21
2023-03-30T04:41:57.647Z,72.12
2023-03-30T04:44:36.081Z,71.76
2023-03-30T04:47:24.703Z,71.22
2023-03-30T04:49:54.847Z,69.04
2023-03-30T04:52:40.168Z,68.67
2023-03-30T04:55:30.763Z,69.40
2023-03-30T04:57:57.934Z,68.47
2023-03-30T05:00:42.626Z,69.13
2023-03-30T05:03:44.459Z,69.83
2023-03-30T05:06:29.787Z,70.06
2023-03-30T05:09:17.286Z,69.02
2023-03-30T05:12:04.941Z,67.09
2023-03-30T05:14:52.294Z,65.13
2023-03-30T05:17:28.427Z,64.96
2023-03-30T05:20:15.789Z,66.93
2023-03-30T05:23:01.385Z,68.27
2023-03-30T05:25:52.207Z,71.55
2023-03-30T05:28:39.339Z,72.37
2023-03-30T05:31:23.128Z,72.18
2023-03-30T05:34:17.345Z,72.27
2023-03-30T05:36:50.832Z,71.66
2023-03-30T05:39:29.864Z,71.45
2023-03-30T05:42:15.496Z,69.47
2023-03-30T05:44:54.017Z,69.59
2023-03-30T05:47:39.746Z,68.85
2023-03-30T05:50:14.313Z,68.82
2023-03-30T05:52:52.649Z,69.35
2023-03-30T05:55:25.954Z,67.53
2023-03-30T05:58:08.452Z,67.75
2023-03-30T06:00:54.318Z,66.34
2023-03-30T06:03:32.304Z,66.54
2023-03-30T06:05:59.547Z,61.54
2023-03-30T06:08:29.846Z,58.70
2023-03-30T06:11:01.999Z,57.34
2023-03-30T06:13:37.329Z,55.91
2023-03-30T06:16:04.744Z,56.10
2023-03-30T06:18:32.040Z,57.62
2023-03-30T06:21:08.517Z,55.99
2023-03-30T06:23:56.027Z,57.10
2023-03-30T06:26:28.105Z,53.91
2023-03-30T06:28:55.288Z,53.31
2023-03-30T06:31:22.582Z,53.09
2023-03-30T06:33:57.438Z,57.04
2023-03-30T06:36:44.934Z,53.47
2023-03-30T06:39:11.894Z,53.54
2023-03-30T06:41:39.436Z,54.50
2023-03-30T06:44:19.930Z,51.80
2023-03-30T06:46:48.087Z,52.34
2023-03-30T06:49:15.733Z,52.29
2023-03-30T06:51:43.228Z,51.74
2023-03-30T06:54:11.358Z,53.17
2023-03-30T06:56:43.317Z,48.49
2023-03-30T06:59:14.336Z,52.25
2023-03-30T07:02:16.749Z,50.31
2023-03-30T07:05:02.633Z,48.18
2023-03-30T07:07:47.975Z,47.48
2023-03-30T07:10:15.326Z,49.34
2023-03-30T07:12:43.590Z,48.41
2023-03-30T07:15:11.739Z,48.96
2023-03-30T07:17:40.104Z,49.61
2023-03-30T07:20:08.975Z,47.08
2023-03-30T07:22:49.421Z,49.64
2023-03-30T07:25:17.023Z,47.96
2023-03-30T07:27:44.625Z,49.13
2023-03-30T07:30:21.394Z,50.39
2023-03-30T07:32:53.459Z,48.74
2023-03-30T07:35:22.810Z,47.71
2023-03-30T07:37:51.246Z,46.29
2023-03-30T07:40:19.925Z,46.78
2023-03-30T07:42:48.235Z,49.52
2023-03-30T07:45:16.704Z,48.12
2023-03-30T07:47:45.962Z,45.43
2023-03-30T07:50:13.338Z,47.25
2023-03-30T07:52:40.627Z,46.91
2023-03-30T07:55:10.358Z,47.59
2023-03-30T07:57:42.524Z,43.72
2023-03-30T08:00:10.632Z,42.47
2023-03-30T08:02:57.114Z,45.77
2023-03-30T08:05:25.113Z,45.81
2023-03-30T08:08:04.737Z,47.79
2023-03-30T08:10:35.300Z,45.81
2023-03-30T08:13:02.712Z,46.27
2023-03-30T08:15:29.876Z,45.21
2023-03-30T08:17:57.672Z,44.84
2023-03-30T08:20:25.021Z,43.49
2023-03-30T08:22:52.281Z,44.83
2023-03-30T08:25:19.386Z,44.70
2023-03-30T08:27:46.550Z,44.84
2023-03-30T08:30:16.007Z,42.52
2023-03-30T08:32:43.122Z,43.18
2023-03-30T08:35:10.249Z,42.00
2023-03-30T08:37:37.471Z,43.74
2023-03-30T08:40:08.127Z,38.48
2023-03-30T08:42:35.246Z,40.27
2023-03-30T08:45:05.683Z,40.31
2023-03-30T08:47:36.630Z,40.53
2023-03-30T08:50:16.577Z,40.78
2023-03-30T08:52:43.895Z,40.56
2023-03-30T08:55:33.394Z,37.30
2023-03-30T08:58:40.301Z,38.89
2023-03-30T09:01:20.861Z,39.75
2023-03-30T09:04:06.733Z,39.91
2023-03-30T09:07:18.443Z,37.08
2023-03-30T09:09:49.484Z,39.02
2023-03-30T09:12:34.250Z,40.04
2023-03-30T09:15:22.863Z,39.66
2023-03-30T09:18:19.941Z,38.53
2023-03-30T09:20:48.680Z,38.33
2023-03-30T09:23:17.804Z,37.02
2023-03-30T09:25:55.049Z,39.93
2023-03-30T09:28:36.769Z,37.35
2023-03-30T09:31:11.023Z,39.28
2023-03-30T09:33:56.266Z,36.48
2023-03-30T09:36:52.307Z,38.98
2023-03-30T09:39:21.549Z,40.27
2023-03-30T09:41:57.229Z,38.63
2023-03-30T10:17:08.022Z,36.48
2023-03-30T10:19:38.369Z,38.03
2023-03-30T10:22:17.564Z,37.09
2023-03-30T10:24:53.426Z,37.49
2023-03-30T10:27:25.867Z,35.37
2023-03-30T10:29:52.884Z,35.29
2023-03-30T10:32:27.319Z,35.04
2023-03-30T10:34:57.601Z,33.67
2023-03-30T10:37:38.981Z,35.81
2023-03-30T10:40:21.236Z,34.73
2023-03-30T10:42:52.678Z,34.12
2023-03-30T10:45:47.834Z,35.48
2023-03-30T10:48:39.173Z,36.34
2023-03-30T10:51:12.280Z,35.15
2023-03-30T10:53:48.295Z,35.15
2023-03-30T10:56:40.054Z,35.44
2023-03-30T10:59:44.212Z,36.07
2023-03-30T11:02:46.619Z,35.32
2023-03-30T11:05:22.924Z,36.20
2023-03-30T11:07:56.200Z,36.76
2023-03-30T11:10:36.911Z,34.14
2023-03-30T11:13:15.183Z,34.65
2023-03-30T11:15:55.631Z,36.13
2023-03-30T11:18:29.180Z,35.92
2023-03-30T11:21:06.209Z,35.36
2023-03-30T11:23:55.293Z,35.45
2023-03-30T11:26:59.433Z,34.58
2023-03-30T11:29:50.800Z,34.04
2023-03-30T11:32:36.603Z,35.12
2023-03-30T11:35:24.734Z,35.76
2023-03-30T11:38:02.844Z,35.38
2023-03-30T11:40:51.830Z,34.69
2023-03-30T11:43:22.851Z,35.21
2023-03-30T11:45:58.194Z,36.31
2023-03-30T11:49:04.337Z,36.47
2023-03-30T11:52:04.699Z,34.48
2023-03-30T11:55:01.705Z,34.50
2023-03-30T11:57:48.262Z,35.60
2023-03-30T12:00:54.818Z,33.93
2023-03-30T12:03:42.805Z,32.82
2023-03-30T12:06:31.343Z,35.03
2023-03-30T12:09:23.487Z,35.53
2023-03-30T12:12:03.455Z,34.81
2023-03-30T12:14:34.218Z,34.56
2023-03-30T12:17:42.939Z,33.31
2023-03-30T12:20:10.130Z,33.06
2023-03-30T12:22:46.416Z,32.82
2023-03-30T12:25:33.186Z,32.75
2023-03-30T12:28:04.548Z,32.84
2023-03-30T12:30:46.200Z,32.67
2023-03-30T12:33:44.134Z,32.57
2023-03-30T12:36:34.185Z,32.59
2023-03-30T12:39:02.863Z,32.82
2023-03-30T12:41:41.862Z,31.20
2023-03-30T12:44:35.386Z,31.60
2023-03-30T12:47:46.433Z,32.45
2023-03-30T12:50:25.246Z,32.82
2023-03-30T12:53:09.509Z,33.41
2023-03-30T12:55:39.339Z,31.04
2023-03-30T12:58:42.933Z,31.74
2023-03-30T13:01:25.056Z,31.19
2023-03-30T13:03:55.219Z,32.22
2023-03-30T13:06:27.274Z,33.37
2023-03-30T13:08:57.457Z,32.94
2023-03-30T13:11:24.717Z,32.86
2023-03-30T13:13:57.941Z,31.62
2023-03-30T13:16:53.260Z,33.17
2023-03-30T13:19:28.469Z,32.26
2023-03-30T13:22:17.182Z,31.31
2023-03-30T13:24:47.035Z,31.01
2023-03-30T13:27:14.043Z,31.73
2023-03-30T13:29:42.537Z,31.66
2023-03-30T13:32:20.677Z,31.02
2023-03-30T13:35:05.347Z,30.85
2023-03-30T13:37:45.034Z,30.84
2023-03-30T13:40:38.676Z,32.36
2023-03-30T13:43:15.993Z,31.91
2023-03-30T13:46:13.160Z,31.21
2023-03-30T13:48:55.712Z,31.54
2023-03-30T13:51:27.444Z,31.58
2023-03-30T13:54:01.892Z,32.05
2023-03-30T13:56:41.414Z,33.00
2023-03-30T13:59:18.168Z,32.42
2023-03-30T14:01:54.521Z,31.61
2023-03-30T14:04:22.252Z,32.00
2023-03-30T14:06:51.547Z,32.06
2023-03-30T14:09:24.867Z,32.88
2023-03-30T14:12:06.107Z,31.05
2023-03-30T14:14:39.261Z,31.31
2023-03-30T14:17:22.515Z,30.83
2023-03-30T14:20:19.920Z,32.35
2023-03-30T14:22:49.047Z,32.64
2023-03-30T14:25:29.732Z,32.20
2023-03-30T14:28:01.944Z,32.14
2023-03-30T14:30:29.930Z,32.11
2023-03-30T14:33:12.390Z,31.23
2023-03-30T14:35:46.345Z,32.04
2023-03-30T14:38:22.706Z,29.97
2023-03-30T14:40:51.409Z,31.27
2023-03-30T14:43:29.068Z,31.64
2023-03-30T14:45:59.013Z,32.08
2023-03-30T14:48:33.166Z,31.14
2023-03-30T14:51:09.697Z,31.26
2023-03-30T14:53:37.095Z,32.15
2023-03-30T14:56:05.158Z,31.68
2023-03-30T14:58:33.862Z,32.88
2023-03-30T15:01:16.749Z,32.16
2023-03-30T15:03:45.195Z,32.56
2023-03-30T15:06:16.671Z,33.08
2023-03-30T15:08:46.763Z,32.86
2023-03-30T15:11:26.542Z,32.35
2023-03-30T15:14:03.096Z,33.19
2023-03-30T15:16:33.283Z,32.64
2023-03-30T15:19:11.096Z,32.51
2023-03-30T15:21:39.133Z,33.13
2023-03-30T15:24:09.258Z,32.26
2023-03-30T15:26:44.246Z,32.37
2023-03-30T15:29:12.384Z,31.84
2023-03-30T15:31:39.488Z,32.50
2023-03-30T15:34:14.182Z,32.13
2023-03-30T15:36:41.670Z,31.67
2023-03-30T15:39:48.164Z,30.91
2023-03-30T15:42:25.709Z,31.23
2023-03-30T15:45:10.175Z,31.55
2023-03-30T15:47:37.770Z,33.14
2023-03-30T15:50:05.493Z,33.21
2023-03-30T15:52:35.714Z,32.96
2023-03-30T15:55:09.076Z,33.00
2023-03-30T15:57:40.567Z,33.40
2023-03-30T16:00:15.504Z,34.23
2023-03-30T16:02:48.769Z,34.53
2023-03-30T16:05:27.753Z,34.77
2023-03-30T16:07:55.811Z,35.29
2023-03-30T16:10:26.903Z,38.58
2023-03-30T16:12:55.928Z,39.31
2023-03-30T16:15:26.311Z,39.73
2023-03-30T16:17:53.482Z,40.71
2023-03-30T16:20:30.861Z,40.21
2023-03-30T16:22:58.514Z,41.01
2023-03-30T16:25:34.514Z,42.17
2023-03-30T16:28:16.789Z,39.97
2023-03-30T16:30:46.473Z,39.52
2023-03-30T16:33:13.919Z,41.84
2023-03-30T16:35:41.234Z,42.20
2023-03-30T16:38:13.708Z,42.88
2023-03-30T16:40:43.646Z,43.30
2023-03-30T16:43:10.933Z,44.35
2023-03-30T16:45:38.603Z,45.00
2023-03-30T16:48:06.098Z,45.54
2023-03-30T16:50:45.437Z,45.65
2023-03-30T16:53:13.245Z,45.66
2023-03-30T16:55:40.936Z,45.91
2023-03-30T16:58:09.682Z,45.69
2023-03-30T17:00:41.064Z,46.76
2023-03-30T17:03:09.142Z,47.44
2023-03-30T17:05:36.581Z,47.51
2023-03-30T17:08:06.404Z,47.34
2023-03-30T17:10:37.174Z,46.96
2023-03-30T17:13:04.711Z,48.16
2023-03-30T17:15:31.883Z,47.82
2023-03-30T17:17:59.019Z,46.95
2023-03-30T17:20:38.783Z,47.66
2023-03-30T17:23:08.534Z,49.49
2023-03-30T17:25:37.460Z,48.34
2023-03-30T17:28:13.100Z,48.07
2023-03-30T17:30:43.034Z,47.91
2023-03-30T17:33:12.905Z,47.03
2023-03-30T17:35:41.037Z,47.87
2023-03-30T17:38:09.443Z,47.82
2023-03-30T17:40:38.976Z,48.34
2023-03-30T17:43:07.495Z,48.37
2023-03-30T17:45:35.731Z,48.49
2023-03-30T17:48:05.311Z,48.49
2023-03-30T17:50:37.813Z,48.70
2023-03-30T17:53:05.962Z,48.57
2023-03-30T17:55:33.870Z,48.75
2023-03-30T17:58:00.956Z,49.36
2023-03-30T18:00:29.718Z,48.79
2023-03-30T18:02:57.614Z,49.11
2023-03-30T18:05:27.844Z,49.44
2023-03-30T18:07:55.410Z,49.37
2023-03-30T18:10:22.504Z,49.89
2023-03-30T18:12:50.471Z,48.82
2023-03-30T18:15:20.409Z,49.86
2023-03-30T18:17:48.052Z,48.57
2023-03-30T18:20:25.966Z,49.37
2023-03-30T18:22:53.162Z,49.35
2023-03-30T18:25:31.615Z,49.39
2023-03-30T18:28:01.318Z,48.85
2023-03-30T18:30:32.616Z,48.11
2023-03-30T18:33:00.382Z,48.60
2023-03-30T18:35:29.956Z,47.28
2023-03-30T18:37:58.235Z,47.31
2023-03-30T18:40:32.513Z,47.69
2023-03-30T18:43:00.565Z,48.69
2023-03-30T18:45:34.221Z,46.26
2023-03-30T18:48:02.593Z,46.69
2023-03-30T18:50:41.621Z,50.60
2023-03-30T18:53:11.582Z,50.59
2023-03-30T18:55:41.203Z,49.41
2023-03-30T18:58:18.666Z,48.74
2023-03-30T19:00:45.811Z,48.87
2023-03-30T19:03:14.435Z,47.73
2023-03-30T19:05:42.912Z,48.32
2023-03-30T19:08:12.867Z,46.97
2023-03-30T19:10:42.640Z,48.01
2023-03-30T19:13:14.244Z,46.94
2023-03-30T19:15:41.565Z,48.84
2023-03-30T19:18:09.003Z,47.89
2023-03-30T19:20:39.919Z,50.38
2023-03-30T19:23:17.063Z,49.57
2023-03-30T19:25:45.021Z,47.22
2023-03-30T19:28:12.994Z,44.82
2023-03-30T19:30:40.526Z,44.72
2023-03-30T19:33:12.212Z,44.13
2023-03-30T19:35:41.110Z,43.51
2023-03-30T19:38:08.969Z,43.37
2023-03-30T19:40:38.551Z,43.37
2023-03-30T19:43:07.141Z,43.47
2023-03-30T19:45:34.240Z,44.85
2023-03-30T19:48:01.537Z,45.12
2023-03-30T19:50:30.189Z,45.88
2023-03-30T19:52:58.847Z,46.84
2023-03-30T19:55:26.427Z,47.62
2023-03-30T19:57:53.556Z,48.93
2023-03-30T20:00:22.831Z,50.09
2023-03-30T20:02:52.211Z,50.51
2023-03-30T20:05:21.162Z,51.43
2023-03-30T20:07:48.759Z,52.62
2023-03-30T20:10:19.639Z,53.49
2023-03-30T20:12:47.623Z,53.49
2023-03-30T20:15:14.928Z,54.07
2023-03-30T20:17:42.791Z,54.75
2023-03-30T20:20:12.877Z,54.59
2023-03-30T20:22:42.703Z,55.49
2023-03-30T20:25:12.641Z,54.45
2023-03-30T20:27:40.457Z,55.93
2023-03-30T20:30:08.686Z,56.06
2023-03-30T20:32:35.929Z,58.12
2023-03-30T20:35:03.405Z,58.64
2023-03-30T20:37:30.476Z,60.14
2023-03-30T20:40:05.285Z,58.99
2023-03-30T20:42:32.702Z,57.58
2023-03-30T20:45:01.321Z,55.99
2023-03-30T20:47:31.073Z,55.41
2023-03-30T20:49:59.614Z,54.39
2023-03-30T20:52:27.862Z,52.89
2023-03-30T20:54:56.438Z,52.55
2023-03-30T20:57:24.453Z,51.76
2023-03-30T20:59:54.290Z,50.46
2023-03-30T21:02:21.586Z,50.53
2023-03-30T21:04:50.461Z,50.94
2023-03-30T21:07:18.218Z,50.83
2023-03-30T21:09:45.980Z,50.63
2023-03-30T21:12:13.145Z,52.43
2023-03-30T21:14:40.181Z,51.64
2023-03-30T21:17:07.588Z,51.43
2023-03-30T21:19:34.997Z,52.42
2023-03-30T21:22:02.120Z,51.59
2023-03-30T21:24:30.989Z,51.29
2023-03-30T21:26:58.060Z,50.94
2023-03-30T21:29:25.248Z,48.89
2023-03-30T21:31:52.465Z,48.72
2023-03-30T21:34:20.358Z,46.81
2023-03-30T21:36:47.446Z,45.05
2023-03-30T21:39:14.599Z,44.12
2023-03-30T21:41:41.821Z,44.27
2023-03-30T21:44:08.925Z,45.28
2023-03-30T21:46:36.035Z,46.51
2023-03-30T21:49:03.241Z,47.60
2023-03-30T21:51:31.680Z,48.13
2023-03-30T21:53:59.430Z,48.21
2023-03-30T21:56:29.434Z,51.13
2023-03-30T21:58:57.156Z,49.17
2023-03-30T22:01:24.618Z,49.60
2023-03-30T22:03:52.907Z,48.69
2023-03-30T22:06:20.614Z,47.57
2023-03-30T22:08:48.000Z,47.85
2023-03-30T22:11:18.012Z,46.90
2023-03-30T22:13:47.507Z,45.74
2023-03-30T22:16:24.535Z,45.82
2023-03-30T22:18:52.516Z,46.35
2023-03-30T22:21:22.064Z,45.82
2023-03-30T22:23:49.080Z,46.27
2023-03-30T22:26:16.501Z,47.29
2023-03-30T22:28:44.352Z,47.14
2023-03-30T22:31:14.176Z,47.18
2023-03-30T22:33:41.707Z,47.09
2023-03-30T22:36:20.622Z,47.73
2023-03-30T22:38:49.258Z,47.93
2023-03-30T22:41:16.847Z,48.35
2023-03-30T22:43:43.967Z,48.27
2023-03-30T22:46:11.968Z,47.79
2023-03-30T22:48:41.663Z,48.47
2023-03-30T22:51:14.321Z,48.89
2023-03-30T22:53:41.639Z,49.46
2023-03-30T22:56:08.728Z,49.18
2023-03-30T22:58:36.483Z,49.02
2023-03-30T23:01:07.147Z,48.52
2023-03-30T23:03:34.450Z,49.00
2023-03-30T23:06:01.937Z,48.75
2023-03-30T23:08:30.197Z,48.77
2023-03-30T23:11:04.060Z,48.74
2023-03-30T23:13:33.599Z,49.17
2023-03-30T23:16:01.591Z,48.77
2023-03-30T23:18:28.719Z,48.14
2023-03-30T23:20:58.045Z,48.59
2023-03-30T23:23:25.371Z,48.15
2023-03-30T23:25:52.792Z,47.76
2023-03-30T23:28:19.864Z,47.64
2023-03-30T23:30:46.983Z,47.77
2023-03-30T23:33:14.379Z,46.17
2023-03-30T23:35:49.131Z,46.92
2023-03-30T23:38:17.234Z,46.42
2023-03-30T23:40:44.362Z,46.44
2023-03-30T23:43:11.735Z,46.28
2023-03-30T23:45:38.901Z,46.76
2023-03-30T23:48:06.223Z,46.26
2023-03-30T23:50:36.805Z,46.19
2023-03-30T23:53:03.880Z,47.62
2023-03-30T23:55:31.191Z,47.23
2023-03-30T23:57:58.266Z,46.54
